createdAt,value
2018-02-01T00:01:23.519Z,59.10
2018-02-01T00:03:52.444Z,59.40
2018-02-01T00:06:20.556Z,59.30
2018-02-01T00:08:48.694Z,59.50
2018-02-01T00:11:16.823Z,59.80
2018-02-01T00:13:45.716Z,60.20
2018-02-01T00:16:13.842Z,60.10
2018-02-01T00:18:41.961Z,60.10
2018-02-01T00:21:10.157Z,59.90
2018-02-01T00:23:39.012Z,60.00
2018-02-01T00:26:07.909Z,59.80
2018-02-01T00:28:36.819Z,60.00
2018-02-01T00:31:05.691Z,60.10
2018-02-01T00:33:33.799Z,60.10
2018-02-01T00:36:01.933Z,60.20
2018-02-01T00:38:30.060Z,60.30
2018-02-01T00:40:58.176Z,60.50
2018-02-01T00:43:27.104Z,61.10
2018-02-01T00:45:55.204Z,61.10
2018-02-01T00:48:23.393Z,61.20
2018-02-01T00:50:51.609Z,61.70
2018-02-01T00:53:20.499Z,62.40
2018-02-01T00:55:48.641Z,62.40
2018-02-01T00:58:17.521Z,63.20
2018-02-01T01:00:46.446Z,63.70
2018-02-01T01:03:14.556Z,63.70
2018-02-01T01:05:42.714Z,64.10
2018-02-01T01:08:10.842Z,64.60
2018-02-01T01:10:39.777Z,65.30
2018-02-01T01:13:08.689Z,66.50
2018-02-01T01:15:36.830Z,65.50
2018-02-01T01:18:04.965Z,66.20
2018-02-01T01:20:33.850Z,67.10
2018-02-01T01:23:02.743Z,67.30
2018-02-01T01:25:31.633Z,67.70
2018-02-01T01:28:00.603Z,67.90
2018-02-01T01:30:28.728Z,67.90
2018-02-01T01:32:57.586Z,68.10
2018-02-01T01:35:26.522Z,68.30
2018-02-01T01:37:54.638Z,68.30
2018-02-01T01:40:22.778Z,68.40
2018-02-01T01:42:50.885Z,68.40
2018-02-01T01:45:19.011Z,68.40
2018-02-01T01:47:47.128Z,68.70
2018-02-01T01:50:16.030Z,69.00
2018-02-01T01:52:44.909Z,68.80
2018-02-01T01:55:13.836Z,68.70
2018-02-01T01:57:41.938Z,68.70
2018-02-01T02:00:10.046Z,68.80
2018-02-01T02:02:39.218Z,69.30
2018-02-01T02:05:07.325Z,69.20
2018-02-01T02:07:35.521Z,69.30
2018-02-01T02:10:03.572Z,69.30
2018-02-01T02:12:31.695Z,69.30
2018-02-01T02:14:59.850Z,69.50
2018-02-01T02:17:27.938Z,69.90
2018-02-01T02:19:56.071Z,69.90
2018-02-01T02:22:24.199Z,69.90
2018-02-01T02:24:52.323Z,70.30
2018-02-01T02:27:20.438Z,70.80
2018-02-01T02:29:48.561Z,71.20
2018-02-01T02:32:23.602Z,71.80
2018-02-01T02:34:51.743Z,72.00
2018-02-01T02:37:20.643Z,72.30
2018-02-01T02:39:49.504Z,72.30
2018-02-01T02:42:17.639Z,72.20
2018-02-01T02:44:45.749Z,72.30
2018-02-01T02:47:13.946Z,72.50
2018-02-01T02:49:42.095Z,72.40
2018-02-01T02:52:10.209Z,72.60
2018-02-01T02:54:38.318Z,72.70
2018-02-01T02:57:06.441Z,72.60
2018-02-01T02:59:34.571Z,73.00
2018-02-01T03:02:02.774Z,73.30
2018-02-01T03:04:31.670Z,73.30
2018-02-01T03:06:59.788Z,73.20
2018-02-01T03:09:27.921Z,73.10
2018-02-01T03:11:56.046Z,73.20
2018-02-01T03:14:24.175Z,73.00
2018-02-01T03:16:52.321Z,73.30
2018-02-01T03:19:21.227Z,73.30
2018-02-01T03:21:49.351Z,73.20
2018-02-01T03:24:17.477Z,73.30
2018-02-01T03:26:45.600Z,73.50
2018-02-01T03:29:13.755Z,73.60
2018-02-01T03:31:41.877Z,73.60
2018-02-01T03:34:10.746Z,73.00
2018-02-01T03:36:38.871Z,73.00
2018-02-01T03:39:06.986Z,73.00
2018-02-01T03:41:35.122Z,73.00
2018-02-01T03:44:03.998Z,73.10
2018-02-01T03:46:32.131Z,72.90
2018-02-01T03:49:01.024Z,72.80
2018-02-01T03:51:29.927Z,72.50
2018-02-01T03:53:58.804Z,72.20
2018-02-01T03:56:27.716Z,72.30
2018-02-01T03:58:55.830Z,72.20
2018-02-01T04:01:24.703Z,72.80
2018-02-01T04:03:52.858Z,72.70
2018-02-01T04:06:20.962Z,72.50
2018-02-01T04:08:49.098Z,72.80
2018-02-01T04:11:17.208Z,72.70
2018-02-01T04:13:45.323Z,73.10
2018-02-01T04:16:14.953Z,72.90
2018-02-01T04:18:43.067Z,73.40
2018-02-01T04:21:11.201Z,73.70
2018-02-01T04:23:39.309Z,73.90
2018-02-01T04:26:07.447Z,74.00
2018-02-01T04:28:35.565Z,73.90
2018-02-01T04:31:03.679Z,73.90
2018-02-01T04:33:31.792Z,74.10
2018-02-01T04:35:59.918Z,73.80
2018-02-01T04:38:28.041Z,73.70
2018-02-01T04:40:56.167Z,73.80
2018-02-01T04:43:24.302Z,73.70
2018-02-01T04:45:52.421Z,74.00
2018-02-01T04:48:20.560Z,74.30
2018-02-01T04:50:49.482Z,74.70
2018-02-01T04:53:17.607Z,74.70
2018-02-01T04:55:45.730Z,74.70
2018-02-01T04:58:13.847Z,75.00
2018-02-01T05:00:41.987Z,75.20
2018-02-01T05:03:10.103Z,75.30
2018-02-01T05:05:38.977Z,75.20
2018-02-01T05:08:07.100Z,75.20
2018-02-01T05:10:35.218Z,75.30
2018-02-01T05:13:03.336Z,75.80
2018-02-01T05:15:31.472Z,76.00
2018-02-01T05:17:59.594Z,76.40
2018-02-01T05:20:27.711Z,76.30
2018-02-01T05:22:55.845Z,76.60
2018-02-01T05:25:23.974Z,76.60
2018-02-01T05:27:52.867Z,77.00
2018-02-01T05:30:21.747Z,77.30
2018-02-01T05:32:50.626Z,77.70
2018-02-01T05:35:18.762Z,77.60
2018-02-01T05:37:46.878Z,77.70
2018-02-01T05:40:15.756Z,78.50
2018-02-01T05:42:43.897Z,78.50
2018-02-01T05:45:12.016Z,79.00
2018-02-01T05:47:40.155Z,78.70
2018-02-01T05:50:08.265Z,79.80
2018-02-01T05:52:37.169Z,79.90
2018-02-01T05:55:05.321Z,79.90
2018-02-01T05:57:34.204Z,80.10
2018-02-01T06:00:02.330Z,81.00
2018-02-01T06:02:30.433Z,81.10
2018-02-01T06:04:58.560Z,81.30
2018-02-01T06:07:26.672Z,80.70
2018-02-01T06:09:54.866Z,81.30
2018-02-01T06:12:22.985Z,81.80
2018-02-01T06:14:51.120Z,83.00
2018-02-01T06:17:20.000Z,83.00
2018-02-01T06:19:48.159Z,82.90
2018-02-01T06:22:16.249Z,82.50
2018-02-01T06:24:45.126Z,81.20
2018-02-01T06:27:13.260Z,81.20
2018-02-01T06:29:42.146Z,81.80
2018-02-01T06:32:10.291Z,82.00
2018-02-01T06:34:38.395Z,81.90
2018-02-01T06:37:06.518Z,81.90
2018-02-01T06:39:35.405Z,82.00
2018-02-01T06:42:03.531Z,81.90
2018-02-01T06:44:31.667Z,81.90
2018-02-01T06:46:59.791Z,82.70
2018-02-01T06:49:27.933Z,82.60
2018-02-01T06:51:56.062Z,82.90
2018-02-01T06:54:24.929Z,83.30
2018-02-01T06:56:53.061Z,83.20
2018-02-01T06:59:21.174Z,82.50
2018-02-01T07:01:50.354Z,82.70
2018-02-01T07:04:18.476Z,82.80
2018-02-01T07:06:47.406Z,82.80
2018-02-01T07:09:15.522Z,82.70
2018-02-01T07:11:44.394Z,83.10
2018-02-01T07:14:12.551Z,83.10
2018-02-01T07:16:40.649Z,82.60
2018-02-01T07:19:09.271Z,82.50
2018-02-01T07:21:37.380Z,82.80
2018-02-01T07:24:05.528Z,82.30
2018-02-01T07:26:33.638Z,81.70
2018-02-01T07:29:01.765Z,82.00
2018-02-01T07:31:29.890Z,82.30
2018-02-01T07:33:58.011Z,81.60
2018-02-01T07:36:26.183Z,81.80
2018-02-01T07:38:54.302Z,82.20
2018-02-01T07:41:22.441Z,82.80
2018-02-01T07:43:50.550Z,83.70
2018-02-01T07:49:21.779Z,83.30
2018-02-01T07:51:49.921Z,83.60
2018-02-01T07:54:18.782Z,85.10
2018-02-01T07:56:47.665Z,84.50
2018-02-01T07:59:15.807Z,84.40
2018-02-01T08:01:43.916Z,84.90
2018-02-01T08:04:12.818Z,85.20
2018-02-01T08:06:41.705Z,85.10
2018-02-01T08:09:10.592Z,84.20
2018-02-01T08:11:39.488Z,84.60
2018-02-01T08:14:08.373Z,84.00
2018-02-01T08:16:37.278Z,84.50
2018-02-01T08:19:06.159Z,84.30
2018-02-01T08:21:35.062Z,84.50
2018-02-01T08:24:03.216Z,84.50
2018-02-01T08:26:31.328Z,84.50
2018-02-01T08:28:59.764Z,84.80
2018-02-01T08:31:28.657Z,84.70
2018-02-01T08:33:57.531Z,83.50
2018-02-01T08:36:25.668Z,83.40
2018-02-01T08:38:53.819Z,83.20
2018-02-01T08:41:21.937Z,83.40
2018-02-01T08:43:50.063Z,83.50
2018-02-01T08:46:19.568Z,83.10
2018-02-01T08:48:47.966Z,84.00
2018-02-01T08:51:16.072Z,83.80
2018-02-01T08:53:44.202Z,84.00
2018-02-01T08:56:13.190Z,83.50
2018-02-01T08:58:41.318Z,83.50
2018-02-01T09:01:10.227Z,83.90
2018-02-01T09:03:38.350Z,83.90
2018-02-01T09:06:06.469Z,83.50
2018-02-01T09:08:34.580Z,83.40
2018-02-01T09:11:02.731Z,83.70
2018-02-01T09:13:30.835Z,84.10
2018-02-01T09:15:58.992Z,84.10
2018-02-01T09:18:27.121Z,83.50
2018-02-01T09:20:56.004Z,84.00
2018-02-01T09:23:24.936Z,83.70
2018-02-01T09:25:53.052Z,83.60
2018-02-01T09:28:21.213Z,84.40
2018-02-01T09:30:49.331Z,84.50
2018-02-01T09:33:17.476Z,84.50
2018-02-01T09:35:46.598Z,84.50
2018-02-01T09:38:15.480Z,84.80
2018-02-01T09:40:43.641Z,84.80
2018-02-01T09:43:11.755Z,84.00
2018-02-01T09:45:39.883Z,84.70
2018-02-01T09:48:08.793Z,85.80
2018-02-01T09:50:36.947Z,85.70
2018-02-01T09:53:05.829Z,85.60
2018-02-01T09:55:34.747Z,85.90
2018-02-01T09:58:02.862Z,85.80
2018-02-01T10:00:30.995Z,85.10
2018-02-01T10:02:59.112Z,85.40
2018-02-01T10:05:27.256Z,85.40
2018-02-01T10:07:55.385Z,85.30
2018-02-01T10:10:24.268Z,86.20
2018-02-01T10:12:53.169Z,86.80
2018-02-01T10:15:22.056Z,86.40
2018-02-01T10:17:50.971Z,86.00
2018-02-01T10:20:19.833Z,86.20
2018-02-01T10:22:48.700Z,86.80
2018-02-01T10:25:16.841Z,86.70
2018-02-01T10:27:44.955Z,86.70
2018-02-01T10:30:13.069Z,86.90
2018-02-01T10:32:41.179Z,86.20
2018-02-01T10:35:09.330Z,86.30
2018-02-01T10:37:37.436Z,86.30
2018-02-01T10:40:05.555Z,86.40
2018-02-01T10:42:33.675Z,85.70
2018-02-01T10:45:01.802Z,85.30
2018-02-01T10:47:29.917Z,85.30
2018-02-01T10:49:58.038Z,85.40
2018-02-01T10:52:26.187Z,85.00
2018-02-01T10:54:55.054Z,85.90
2018-02-01T10:57:23.180Z,85.90
2018-02-01T10:59:51.306Z,86.20
2018-02-01T11:02:19.418Z,86.60
2018-02-01T11:04:47.542Z,86.60
2018-02-01T11:07:15.666Z,86.30
2018-02-01T11:09:43.818Z,86.00
2018-02-01T11:12:11.951Z,85.60
2018-02-01T11:14:40.061Z,85.60
2018-02-01T11:17:08.951Z,83.60
2018-02-01T11:19:37.837Z,83.60
2018-02-01T11:22:06.730Z,83.50
2018-02-01T11:24:35.616Z,83.50
2018-02-01T11:27:04.519Z,84.40
2018-02-01T11:29:32.641Z,84.30
2018-02-01T11:32:00.776Z,84.20
2018-02-01T11:34:28.905Z,83.70
2018-02-01T11:36:57.012Z,83.60
2018-02-01T11:39:25.148Z,83.60
2018-02-01T11:41:53.271Z,83.80
2018-02-01T11:44:21.401Z,83.80
2018-02-01T11:46:50.295Z,83.30
2018-02-01T11:49:19.184Z,83.20
2018-02-01T11:51:48.086Z,83.60
2018-02-01T11:54:16.222Z,83.70
2018-02-01T11:56:44.335Z,82.90
2018-02-01T11:59:12.452Z,82.90
2018-02-01T12:01:40.586Z,83.30
2018-02-01T12:04:08.701Z,83.60
2018-02-01T12:06:36.853Z,83.10
2018-02-01T12:09:04.982Z,83.10
2018-02-01T12:11:33.863Z,82.10
2018-02-01T12:14:02.770Z,81.90
2018-02-01T12:16:31.650Z,82.80
2018-02-01T12:19:00.559Z,82.90
2018-02-01T12:21:28.749Z,82.90
2018-02-01T12:23:56.855Z,82.80
2018-02-01T12:26:24.972Z,82.40
2018-02-01T12:28:53.117Z,82.40
2018-02-01T12:31:21.243Z,82.00
2018-02-01T12:33:49.375Z,82.60
2018-02-01T12:36:18.258Z,81.50
2018-02-01T12:38:47.138Z,80.30
2018-02-01T12:41:15.273Z,80.30
2018-02-01T12:46:16.906Z,81.00
2018-02-01T12:48:45.786Z,80.50
2018-02-01T12:51:14.697Z,79.90
2018-02-01T12:53:43.570Z,79.40
2018-02-01T12:56:12.450Z,80.70
2018-02-01T12:58:41.337Z,80.90
2018-02-01T13:01:10.211Z,82.20
2018-02-01T13:03:38.362Z,82.30
2018-02-01T13:06:06.504Z,82.70
2018-02-01T13:08:35.382Z,81.40
2018-02-01T13:11:03.508Z,81.40
2018-02-01T13:13:31.651Z,82.50
2018-02-01T13:15:59.780Z,82.40
2018-02-01T13:18:27.901Z,82.80
2018-02-01T13:20:56.036Z,82.90
2018-02-01T13:23:24.942Z,82.60
2018-02-01T13:25:53.086Z,82.60
2018-02-01T13:28:21.206Z,82.80
2018-02-01T13:30:49.311Z,82.20
2018-02-01T13:33:17.448Z,83.00
2018-02-01T13:35:45.657Z,83.10
2018-02-01T13:38:13.799Z,82.50
2018-02-01T13:40:41.906Z,82.80
2018-02-01T13:43:10.042Z,82.90
2018-02-01T13:45:38.169Z,83.10
2018-02-01T13:48:07.079Z,82.70
2018-02-01T13:50:35.400Z,82.70
2018-02-01T13:53:03.941Z,82.90
2018-02-01T13:55:32.085Z,83.40
2018-02-01T13:58:00.973Z,82.50
2018-02-01T14:00:29.418Z,82.50
2018-02-01T14:02:57.539Z,82.60
2018-02-01T14:05:26.412Z,83.40
2018-02-01T14:07:54.986Z,83.40
2018-02-01T14:10:23.138Z,82.90
2018-02-01T14:12:51.250Z,84.40
2018-02-01T14:15:20.127Z,84.00
2018-02-01T14:17:49.018Z,83.70
2018-02-01T14:20:17.910Z,82.90
2018-02-01T14:22:46.803Z,83.60
2018-02-01T14:25:15.691Z,83.30
2018-02-01T14:27:44.632Z,83.00
2018-02-01T14:30:12.741Z,83.00
2018-02-01T14:32:41.766Z,82.50
2018-02-01T14:35:09.878Z,83.10
2018-02-01T14:37:38.005Z,83.50
2018-02-01T14:40:06.170Z,83.60
2018-02-01T14:42:35.058Z,83.90
2018-02-01T14:45:03.954Z,84.30
2018-02-01T14:47:32.086Z,84.20
2018-02-01T14:50:00.209Z,84.40
2018-02-01T14:52:28.348Z,84.50
2018-02-01T14:54:57.254Z,84.00
2018-02-01T14:57:26.143Z,84.60
2018-02-01T14:59:55.048Z,84.60
2018-02-01T15:02:23.259Z,84.60
2018-02-01T15:04:51.377Z,84.60
2018-02-01T15:07:20.296Z,84.30
2018-02-01T15:09:48.448Z,84.30
2018-02-01T15:12:17.315Z,84.80
2018-02-01T15:14:45.471Z,84.70
2018-02-01T15:17:13.580Z,84.80
2018-02-01T15:19:42.508Z,84.60
2018-02-01T15:22:10.644Z,84.60
2018-02-01T15:24:39.534Z,84.30
2018-02-01T15:27:07.708Z,84.30
2018-02-01T15:29:36.600Z,84.80
2018-02-01T15:32:04.738Z,84.80
2018-02-01T15:34:32.886Z,84.90
2018-02-01T15:37:01.017Z,84.60
2018-02-01T15:39:29.934Z,84.70
2018-02-01T15:41:58.080Z,84.70
2018-02-01T15:44:26.207Z,84.60
2018-02-01T15:46:54.340Z,84.70
2018-02-01T15:49:22.462Z,84.70
2018-02-01T15:51:50.585Z,84.70
2018-02-01T15:54:18.728Z,84.80
2018-02-01T15:56:46.861Z,85.00
2018-02-01T15:59:14.970Z,85.20
2018-02-01T16:01:43.871Z,85.50
2018-02-01T16:04:12.767Z,85.40
2018-02-01T16:06:41.676Z,85.50
2018-02-01T16:09:09.794Z,85.40
2018-02-01T16:11:37.939Z,85.50
2018-02-01T16:14:06.070Z,85.40
2018-02-01T16:16:34.951Z,85.60
2018-02-01T16:19:03.851Z,85.70
2018-02-01T16:21:31.973Z,85.70
2018-02-01T16:24:00.115Z,85.50
2018-02-01T16:26:28.219Z,85.50
2018-02-01T16:28:56.378Z,85.50
2018-02-01T16:31:24.498Z,85.60
2018-02-01T16:33:53.385Z,85.20
2018-02-01T16:36:21.541Z,85.20
2018-02-01T16:38:49.655Z,85.30
2018-02-01T16:41:17.797Z,85.40
2018-02-01T16:43:45.927Z,85.30
2018-02-01T16:46:14.069Z,85.50
2018-02-01T16:48:42.256Z,85.30
2018-02-01T16:51:10.355Z,85.20
2018-02-01T16:53:38.481Z,85.10
2018-02-01T16:56:06.620Z,84.90
2018-02-01T16:58:34.756Z,84.40
2018-02-01T17:01:02.899Z,83.20
2018-02-01T17:03:31.779Z,84.00
2018-02-01T17:06:00.667Z,82.90
2018-02-01T17:08:29.556Z,83.30
2018-02-01T17:10:58.448Z,82.20
2018-02-01T17:13:27.360Z,79.90
2018-02-01T17:15:55.473Z,79.90
2018-02-01T17:18:23.666Z,78.90
2018-02-01T17:20:52.563Z,77.60
2018-02-01T17:23:21.452Z,77.10
2018-02-01T17:25:50.351Z,76.70
2018-02-01T17:28:19.243Z,76.70
2018-02-01T17:30:47.386Z,76.70
2018-02-01T17:33:15.506Z,77.00
2018-02-01T17:35:43.640Z,76.70
2018-02-01T17:38:11.763Z,77.10
2018-02-01T17:40:39.894Z,77.30
2018-02-01T17:43:08.789Z,77.30
2018-02-01T17:45:37.715Z,78.00
2018-02-01T17:48:05.817Z,77.40
2018-02-01T17:50:33.931Z,77.40
2018-02-01T17:53:02.090Z,77.50
2018-02-01T17:55:30.254Z,78.00
2018-02-01T17:57:59.180Z,77.00
2018-02-01T18:00:27.398Z,76.70
2018-02-01T18:02:55.507Z,76.30
2018-02-01T18:05:24.401Z,76.60
2018-02-01T18:07:53.289Z,76.30
2018-02-01T18:10:22.281Z,76.50
2018-02-01T18:12:51.166Z,76.00
2018-02-01T18:15:20.048Z,76.40
2018-02-01T18:17:48.976Z,78.00
2018-02-01T18:20:17.116Z,77.40
2018-02-01T18:22:46.019Z,77.20
2018-02-01T18:25:14.176Z,77.20
2018-02-01T18:27:43.107Z,76.90
2018-02-01T18:30:11.280Z,76.90
2018-02-01T18:32:39.447Z,77.70
2018-02-01T18:35:07.601Z,77.90
2018-02-01T18:37:36.504Z,77.20
2018-02-01T18:40:04.648Z,77.20
2018-02-01T18:42:32.766Z,77.60
2018-02-01T18:45:00.896Z,77.80
2018-02-01T18:47:29.812Z,78.70
2018-02-01T18:49:57.958Z,79.30
2018-02-01T18:52:26.846Z,78.40
2018-02-01T18:54:55.748Z,78.60
2018-02-01T18:57:23.939Z,78.60
2018-02-01T18:59:52.014Z,78.50
2018-02-01T19:02:20.148Z,79.00
2018-02-01T19:04:48.309Z,79.20
2018-02-01T19:07:16.504Z,79.80
2018-02-01T19:09:44.646Z,80.10
2018-02-01T19:12:12.859Z,80.40
2018-02-01T19:14:41.797Z,80.60
2018-02-01T19:17:09.916Z,80.70
2018-02-01T19:19:38.948Z,81.10
2018-02-01T19:22:07.115Z,81.00
2018-02-01T19:24:35.260Z,81.20
2018-02-01T19:27:04.167Z,81.10
2018-02-01T19:29:32.378Z,81.10
2018-02-01T19:32:00.524Z,81.30
2018-02-01T19:34:28.739Z,81.20
2018-02-01T19:36:56.892Z,81.00
2018-02-01T19:39:25.045Z,81.20
2018-02-01T19:41:53.341Z,81.10
2018-02-01T19:44:21.493Z,81.50
2018-02-01T19:46:49.651Z,81.20
2018-02-01T19:49:17.784Z,81.10
2018-02-01T19:51:45.937Z,81.00
2018-02-01T19:54:14.514Z,80.90
2018-02-01T19:56:42.690Z,81.50
2018-02-01T19:59:10.945Z,80.90
2018-02-01T20:01:39.429Z,80.90
2018-02-01T20:04:07.908Z,80.80
2018-02-01T20:06:36.181Z,80.60
2018-02-01T20:09:04.564Z,80.80
2018-02-01T20:11:33.044Z,81.70
2018-02-01T20:14:01.229Z,81.10
2018-02-01T20:16:30.330Z,81.10
2018-02-01T20:18:58.993Z,81.30
2018-02-01T20:21:27.966Z,81.40
2018-02-01T20:23:58.062Z,82.10
2018-02-01T20:26:27.112Z,81.00
2018-02-01T20:28:55.302Z,81.00
2018-02-01T20:31:24.348Z,81.30
2018-02-01T20:33:53.675Z,81.20
2018-02-01T20:36:23.851Z,80.70
2018-02-01T20:38:52.153Z,80.70
2018-02-01T20:41:21.143Z,81.50
2018-02-01T20:43:49.307Z,80.80
2018-02-01T20:46:17.481Z,80.60
2018-02-01T20:48:46.252Z,80.70
2018-02-01T20:51:15.254Z,80.50
2018-02-01T20:53:43.637Z,80.60
2018-02-01T20:56:11.843Z,80.50
2018-02-01T20:58:40.060Z,80.20
2018-02-01T21:01:09.007Z,80.20
2018-02-01T21:03:37.152Z,80.10
2018-02-01T21:06:05.397Z,80.30
2018-02-01T21:08:34.347Z,80.00
2018-02-01T21:11:02.551Z,80.10
2018-02-01T21:13:30.764Z,79.60
2018-02-01T21:15:58.894Z,80.00
2018-02-01T21:18:27.037Z,80.00
2018-02-01T21:20:55.166Z,79.60
2018-02-01T21:23:23.359Z,79.60
2018-02-01T21:25:51.498Z,79.50
2018-02-01T21:28:20.385Z,79.90
2018-02-01T21:30:49.338Z,79.80
2018-02-01T21:33:18.072Z,79.80
2018-02-01T21:35:46.975Z,80.10
2018-02-01T21:38:15.110Z,80.10
2018-02-01T21:40:43.340Z,80.30
2018-02-01T21:43:11.507Z,80.20
2018-02-01T21:45:39.757Z,80.30
2018-02-01T21:48:07.957Z,80.30
2018-02-01T21:50:36.072Z,80.20
2018-02-01T21:53:05.089Z,80.80
2018-02-01T21:55:33.199Z,80.40
2018-02-01T21:58:01.321Z,81.20
2018-02-01T22:00:30.224Z,80.50
2018-02-01T22:02:59.098Z,80.40
2018-02-01T22:05:27.999Z,80.50
2018-02-01T22:07:56.894Z,80.50
2018-02-01T22:10:25.032Z,80.40
2018-02-01T22:12:53.161Z,80.40
2018-02-01T22:15:21.309Z,80.20
2018-02-01T22:17:49.421Z,80.10
2018-02-01T22:20:17.573Z,79.70
2018-02-01T22:22:46.424Z,79.80
2018-02-01T22:25:15.342Z,79.70
2018-02-01T22:27:43.482Z,79.60
2018-02-01T22:30:11.623Z,79.50
2018-02-01T22:36:06.798Z,79.20
2018-02-01T22:38:35.674Z,79.10
2018-02-01T22:41:03.825Z,79.00
2018-02-01T22:43:31.935Z,79.40
2018-02-01T22:46:00.822Z,79.20
2018-02-01T22:48:29.743Z,79.30
2018-02-01T22:50:57.842Z,79.40
2018-02-01T22:53:25.967Z,79.20
2018-02-01T22:55:54.072Z,79.20
2018-02-01T22:58:22.226Z,79.10
2018-02-01T23:00:50.333Z,79.00
2018-02-01T23:03:18.442Z,78.80
2018-02-01T23:05:47.349Z,79.20
2018-02-01T23:08:16.245Z,79.20
2018-02-01T23:10:44.434Z,79.20
2018-02-01T23:13:12.546Z,79.20
2018-02-01T23:15:40.666Z,79.30
2018-02-01T23:18:08.837Z,79.30
2018-02-01T23:20:38.107Z,79.80
2018-02-01T23:23:06.236Z,79.80
2018-02-01T23:25:34.352Z,79.60
2018-02-01T23:28:03.248Z,80.00
2018-02-01T23:30:32.125Z,80.10
2018-02-01T23:33:01.015Z,80.30
2018-02-01T23:35:29.925Z,80.50
2018-02-01T23:37:58.060Z,80.40
2018-02-01T23:40:26.209Z,80.70
2018-02-01T23:42:54.323Z,80.70
2018-02-01T23:45:23.205Z,80.90
2018-02-01T23:47:52.119Z,80.90
2018-02-01T23:50:20.989Z,80.90
2018-02-01T23:52:49.885Z,80.90
2018-02-01T23:55:18.786Z,81.00
2018-02-01T23:57:46.898Z,81.00
